Lower Presto, Idaho
Current Conditions -  °F | °C
As of 8:53 AM on Thursday 30 Oct 2014 (Local Time) from KIDA Reporting Station
Broken Clouds Broken Clouds  
Wind Chill: 27°   Ceiling: 10000
Heat Index: 35°   Visibility: 10mi
Dew Point: 29°   Wind: 10mph
Humidity: 78%   Direction: 350°N
Pressure: 30.3"   Gusts: NA
Location:  43.192°N, 111.839°W
Report Text: KIDA 301453Z 35009KT 10SM BKN100 02/M02 A3030 RMK AO2 SLP265 T00171017 53003
Loading
Personal Weather Stations






























Interactive Weather Map
Tropical Storm Tracking
New forecast layout! Learn more

10-Day Weather Forecast

Advertisements
Track Severe Weather on mobile